sensor_id;sensor_type;location;lat;lon;timestamp;temperature;humidity
11239;DHT22;5677;48.488;13.436;2023-04-25T00:01:22;13.80;46.10
11239;DHT22;5677;48.488;13.436;2023-04-25T00:03:50;13.80;46.10
11239;DHT22;5677;48.488;13.436;2023-04-25T00:06:17;13.80;46.10
11239;DHT22;5677;48.488;13.436;2023-04-25T00:08:44;13.80;46.10
11239;DHT22;5677;48.488;13.436;2023-04-25T00:11:11;13.80;46.10
11239;DHT22;5677;48.488;13.436;2023-04-25T00:13:37;13.80;46.10
11239;DHT22;5677;48.488;13.436;2023-04-25T00:16:07;13.70;46.10
11239;DHT22;5677;48.488;13.436;2023-04-25T00:18:33;13.70;46.10
11239;DHT22;5677;48.488;13.436;2023-04-25T00:21:01;13.70;46.10
11239;DHT22;5677;48.488;13.436;2023-04-25T00:23:28;13.70;46.20
11239;DHT22;5677;48.488;13.436;2023-04-25T00:25:55;13.80;46.10
11239;DHT22;5677;48.488;13.436;2023-04-25T00:28:21;13.70;46.20
11239;DHT22;5677;48.488;13.436;2023-04-25T00:30:48;13.70;46.10
11239;DHT22;5677;48.488;13.436;2023-04-25T00:33:15;13.70;46.10
11239;DHT22;5677;48.488;13.436;2023-04-25T00:35:42;13.70;46.20
11239;DHT22;5677;48.488;13.436;2023-04-25T00:38:10;13.70;46.20
11239;DHT22;5677;48.488;13.436;2023-04-25T00:40:37;13.70;46.10
11239;DHT22;5677;48.488;13.436;2023-04-25T00:43:04;13.70;46.20
11239;DHT22;5677;48.488;13.436;2023-04-25T00:45:30;13.70;46.20
11239;DHT22;5677;48.488;13.436;2023-04-25T00:47:58;13.70;46.20
11239;DHT22;5677;48.488;13.436;2023-04-25T00:50:24;13.70;46.20
11239;DHT22;5677;48.488;13.436;2023-04-25T00:52:52;13.70;46.20
11239;DHT22;5677;48.488;13.436;2023-04-25T00:55:20;13.70;46.20
11239;DHT22;5677;48.488;13.436;2023-04-25T00:57:47;13.70;46.20
11239;DHT22;5677;48.488;13.436;2023-04-25T01:00:14;13.70;46.20
11239;DHT22;5677;48.488;13.436;2023-04-25T01:02:41;13.70;46.20
11239;DHT22;5677;48.488;13.436;2023-04-25T01:05:08;13.70;46.20
11239;DHT22;5677;48.488;13.436;2023-04-25T01:07:35;13.70;46.20
11239;DHT22;5677;48.488;13.436;2023-04-25T01:10:03;13.70;46.20
11239;DHT22;5677;48.488;13.436;2023-04-25T01:12:31;13.70;46.20
11239;DHT22;5677;48.488;13.436;2023-04-25T01:14:58;13.70;46.20
11239;DHT22;5677;48.488;13.436;2023-04-25T01:17:25;13.70;46.20
11239;DHT22;5677;48.488;13.436;2023-04-25T01:19:52;13.70;46.20
11239;DHT22;5677;48.488;13.436;2023-04-25T01:22:21;13.70;46.20
11239;DHT22;5677;48.488;13.436;2023-04-25T01:24:48;13.70;46.30
11239;DHT22;5677;48.488;13.436;2023-04-25T01:27:15;13.70;46.30
11239;DHT22;5677;48.488;13.436;2023-04-25T01:29:42;13.70;46.30
11239;DHT22;5677;48.488;13.436;2023-04-25T01:32:09;13.70;46.30
11239;DHT22;5677;48.488;13.436;2023-04-25T01:34:36;13.60;46.20
11239;DHT22;5677;48.488;13.436;2023-04-25T01:37:03;13.70;46.30
11239;DHT22;5677;48.488;13.436;2023-04-25T01:39:31;13.60;46.20
11239;DHT22;5677;48.488;13.436;2023-04-25T01:41:59;13.70;46.30
11239;DHT22;5677;48.488;13.436;2023-04-25T01:44:26;13.60;46.20
11239;DHT22;5677;48.488;13.436;2023-04-25T01:46:53;13.60;46.30
11239;DHT22;5677;48.488;13.436;2023-04-25T01:49:20;13.60;46.20
11239;DHT22;5677;48.488;13.436;2023-04-25T01:51:47;13.60;46.20
11239;DHT22;5677;48.488;13.436;2023-04-25T01:54:13;13.60;46.20
11239;DHT22;5677;48.488;13.436;2023-04-25T01:56:41;13.60;46.20
11239;DHT22;5677;48.488;13.436;2023-04-25T01:59:08;13.60;46.30
11239;DHT22;5677;48.488;13.436;2023-04-25T02:01:35;13.60;46.90
11239;DHT22;5677;48.488;13.436;2023-04-25T02:04:02;13.60;46.30
11239;DHT22;5677;48.488;13.436;2023-04-25T02:06:28;13.60;46.20
11239;DHT22;5677;48.488;13.436;2023-04-25T02:08:56;13.60;46.20
11239;DHT22;5677;48.488;13.436;2023-04-25T02:11:23;13.60;46.20
11239;DHT22;5677;48.488;13.436;2023-04-25T02:13:51;13.60;46.30
11239;DHT22;5677;48.488;13.436;2023-04-25T02:16:17;13.60;46.30
11239;DHT22;5677;48.488;13.436;2023-04-25T02:18:44;13.60;46.20
11239;DHT22;5677;48.488;13.436;2023-04-25T02:21:11;13.60;46.30
11239;DHT22;5677;48.488;13.436;2023-04-25T02:23:38;13.60;46.30
11239;DHT22;5677;48.488;13.436;2023-04-25T02:26:05;13.60;46.30
11239;DHT22;5677;48.488;13.436;2023-04-25T02:28:31;13.60;46.30
11239;DHT22;5677;48.488;13.436;2023-04-25T02:30:59;13.60;46.30
11239;DHT22;5677;48.488;13.436;2023-04-25T02:33:26;13.60;46.30
11239;DHT22;5677;48.488;13.436;2023-04-25T02:35:53;13.60;46.30
11239;DHT22;5677;48.488;13.436;2023-04-25T02:38:20;13.60;46.30
11239;DHT22;5677;48.488;13.436;2023-04-25T02:40:46;13.60;46.30
11239;DHT22;5677;48.488;13.436;2023-04-25T02:43:13;13.60;46.40
11239;DHT22;5677;48.488;13.436;2023-04-25T02:45:41;13.60;46.40
11239;DHT22;5677;48.488;13.436;2023-04-25T02:48:09;13.60;46.30
11239;DHT22;5677;48.488;13.436;2023-04-25T02:50:36;13.60;46.30
11239;DHT22;5677;48.488;13.436;2023-04-25T02:53:02;13.60;46.30
11239;DHT22;5677;48.488;13.436;2023-04-25T02:55:29;13.60;46.30
11239;DHT22;5677;48.488;13.436;2023-04-25T02:57:56;13.60;46.40
11239;DHT22;5677;48.488;13.436;2023-04-25T03:00:23;13.50;46.30
11239;DHT22;5677;48.488;13.436;2023-04-25T03:02:50;13.60;46.30
11239;DHT22;5677;48.488;13.436;2023-04-25T03:05:19;13.50;46.30
11239;DHT22;5677;48.488;13.436;2023-04-25T03:07:45;13.60;46.30
11239;DHT22;5677;48.488;13.436;2023-04-25T03:10:12;13.50;46.40
11239;DHT22;5677;48.488;13.436;2023-04-25T03:12:39;13.50;46.30
11239;DHT22;5677;48.488;13.436;2023-04-25T03:15:06;13.50;46.30
11239;DHT22;5677;48.488;13.436;2023-04-25T03:17:33;13.60;46.40
11239;DHT22;5677;48.488;13.436;2023-04-25T03:20:01;13.50;46.30
11239;DHT22;5677;48.488;13.436;2023-04-25T03:22:30;13.50;46.30
11239;DHT22;5677;48.488;13.436;2023-04-25T03:24:57;13.50;46.40
11239;DHT22;5677;48.488;13.436;2023-04-25T03:27:24;13.50;46.40
11239;DHT22;5677;48.488;13.436;2023-04-25T03:29:51;13.50;46.40
11239;DHT22;5677;48.488;13.436;2023-04-25T03:32:17;13.50;46.40
11239;DHT22;5677;48.488;13.436;2023-04-25T03:34:44;13.50;46.40
11239;DHT22;5677;48.488;13.436;2023-04-25T03:37:11;13.50;46.40
11239;DHT22;5677;48.488;13.436;2023-04-25T03:39:39;13.50;46.40
11239;DHT22;5677;48.488;13.436;2023-04-25T03:42:06;13.50;46.40
11239;DHT22;5677;48.488;13.436;2023-04-25T03:44:32;13.50;46.40
11239;DHT22;5677;48.488;13.436;2023-04-25T03:46:59;13.50;46.40
11239;DHT22;5677;48.488;13.436;2023-04-25T03:49:26;13.50;46.40
11239;DHT22;5677;48.488;13.436;2023-04-25T03:51:52;13.50;46.50
11239;DHT22;5677;48.488;13.436;2023-04-25T03:54:19;13.50;46.40
11239;DHT22;5677;48.488;13.436;2023-04-25T03:56:47;13.50;46.40
11239;DHT22;5677;48.488;13.436;2023-04-25T03:59:15;13.50;46.50
11239;DHT22;5677;48.488;13.436;2023-04-25T04:01:41;13.50;46.50
11239;DHT22;5677;48.488;13.436;2023-04-25T04:04:08;13.50;46.50
11239;DHT22;5677;48.488;13.436;2023-04-25T04:06:35;13.50;46.50
11239;DHT22;5677;48.488;13.436;2023-04-25T04:09:02;13.50;46.50
11239;DHT22;5677;48.488;13.436;2023-04-25T04:11:29;13.50;46.50
11239;DHT22;5677;48.488;13.436;2023-04-25T04:13:59;13.50;46.50
11239;DHT22;5677;48.488;13.436;2023-04-25T04:16:25;13.50;46.50
11239;DHT22;5677;48.488;13.436;2023-04-25T04:18:52;13.50;46.50
11239;DHT22;5677;48.488;13.436;2023-04-25T04:21:19;13.50;46.50
11239;DHT22;5677;48.488;13.436;2023-04-25T04:23:46;13.50;46.50
11239;DHT22;5677;48.488;13.436;2023-04-25T04:26:13;13.50;46.60
11239;DHT22;5677;48.488;13.436;2023-04-25T04:28:41;13.50;46.50
11239;DHT22;5677;48.488;13.436;2023-04-25T04:31:10;13.50;46.50
11239;DHT22;5677;48.488;13.436;2023-04-25T04:33:37;13.50;46.50
11239;DHT22;5677;48.488;13.436;2023-04-25T04:36:04;13.50;46.60
11239;DHT22;5677;48.488;13.436;2023-04-25T04:38:33;13.50;46.60
11239;DHT22;5677;48.488;13.436;2023-04-25T04:41:00;13.50;46.60
11239;DHT22;5677;48.488;13.436;2023-04-25T04:43:27;13.50;46.50
11239;DHT22;5677;48.488;13.436;2023-04-25T04:45:55;13.50;46.50
11239;DHT22;5677;48.488;13.436;2023-04-25T04:48:24;13.50;46.50
11239;DHT22;5677;48.488;13.436;2023-04-25T04:50:51;13.50;46.50
11239;DHT22;5677;48.488;13.436;2023-04-25T04:53:17;13.40;46.40
11239;DHT22;5677;48.488;13.436;2023-04-25T04:55:44;13.50;46.60
11239;DHT22;5677;48.488;13.436;2023-04-25T04:58:11;13.50;46.60
11239;DHT22;5677;48.488;13.436;2023-04-25T05:00:38;13.50;46.60
11239;DHT22;5677;48.488;13.436;2023-04-25T05:03:05;13.50;46.60
11239;DHT22;5677;48.488;13.436;2023-04-25T05:05:33;13.50;46.50
11239;DHT22;5677;48.488;13.436;2023-04-25T05:08:00;13.50;46.60
11239;DHT22;5677;48.488;13.436;2023-04-25T05:10:27;13.50;46.60
11239;DHT22;5677;48.488;13.436;2023-04-25T05:12:54;13.50;46.60
11239;DHT22;5677;48.488;13.436;2023-04-25T05:15:20;13.50;46.60
11239;DHT22;5677;48.488;13.436;2023-04-25T05:17:47;13.40;46.50
11239;DHT22;5677;48.488;13.436;2023-04-25T05:20:14;13.50;46.60
11239;DHT22;5677;48.488;13.436;2023-04-25T05:22:42;13.50;46.60
11239;DHT22;5677;48.488;13.436;2023-04-25T05:25:09;13.50;46.50
11239;DHT22;5677;48.488;13.436;2023-04-25T05:27:35;13.50;46.60
11239;DHT22;5677;48.488;13.436;2023-04-25T05:30:03;13.50;46.50
11239;DHT22;5677;48.488;13.436;2023-04-25T05:32:30;13.50;46.50
11239;DHT22;5677;48.488;13.436;2023-04-25T05:34:57;13.60;46.40
11239;DHT22;5677;48.488;13.436;2023-04-25T05:37:23;13.60;46.40
11239;DHT22;5677;48.488;13.436;2023-04-25T05:39:51;13.60;46.30
11239;DHT22;5677;48.488;13.436;2023-04-25T05:42:18;13.60;46.20
11239;DHT22;5677;48.488;13.436;2023-04-25T05:44:45;13.60;46.20
11239;DHT22;5677;48.488;13.436;2023-04-25T05:47:12;13.60;46.20
11239;DHT22;5677;48.488;13.436;2023-04-25T05:49:39;13.60;46.20
11239;DHT22;5677;48.488;13.436;2023-04-25T05:52:05;13.60;46.10
11239;DHT22;5677;48.488;13.436;2023-04-25T05:54:32;13.60;46.10
11239;DHT22;5677;48.488;13.436;2023-04-25T05:57:00;13.60;46.10
11239;DHT22;5677;48.488;13.436;2023-04-25T05:59:28;13.60;46.10
11239;DHT22;5677;48.488;13.436;2023-04-25T06:01:54;13.60;46.10
11239;DHT22;5677;48.488;13.436;2023-04-25T06:04:21;13.60;46.10
11239;DHT22;5677;48.488;13.436;2023-04-25T06:06:48;13.60;46.10
11239;DHT22;5677;48.488;13.436;2023-04-25T06:09:15;13.60;46.10
11239;DHT22;5677;48.488;13.436;2023-04-25T06:11:41;13.70;46.20
11239;DHT22;5677;48.488;13.436;2023-04-25T06:14:09;13.70;46.70
11239;DHT22;5677;48.488;13.436;2023-04-25T06:16:36;13.70;46.00
11239;DHT22;5677;48.488;13.436;2023-04-25T06:19:03;13.80;45.90
11239;DHT22;5677;48.488;13.436;2023-04-25T06:21:29;13.80;45.90
11239;DHT22;5677;48.488;13.436;2023-04-25T06:23:56;13.90;45.90
11239;DHT22;5677;48.488;13.436;2023-04-25T06:26:23;13.90;45.90
11239;DHT22;5677;48.488;13.436;2023-04-25T06:28:50;13.90;45.80
11239;DHT22;5677;48.488;13.436;2023-04-25T06:31:18;13.90;45.80
11239;DHT22;5677;48.488;13.436;2023-04-25T06:33:45;14.00;45.70
11239;DHT22;5677;48.488;13.436;2023-04-25T06:36:13;14.00;45.70
11239;DHT22;5677;48.488;13.436;2023-04-25T06:38:40;14.00;45.70
11239;DHT22;5677;48.488;13.436;2023-04-25T06:41:07;14.00;45.70
11239;DHT22;5677;48.488;13.436;2023-04-25T06:43:33;14.00;45.70
11239;DHT22;5677;48.488;13.436;2023-04-25T06:46:00;14.00;45.80
11239;DHT22;5677;48.488;13.436;2023-04-25T06:48:28;13.90;45.80
11239;DHT22;5677;48.488;13.436;2023-04-25T06:50:55;13.90;45.80
11239;DHT22;5677;48.488;13.436;2023-04-25T06:53:22;13.90;45.90
11239;DHT22;5677;48.488;13.436;2023-04-25T06:55:48;13.90;46.60
11239;DHT22;5677;48.488;13.436;2023-04-25T06:58:15;13.90;45.90
11239;DHT22;5677;48.488;13.436;2023-04-25T07:00:42;13.80;45.80
11239;DHT22;5677;48.488;13.436;2023-04-25T07:03:09;13.90;45.90
11239;DHT22;5677;48.488;13.436;2023-04-25T07:05:37;13.90;45.80
11239;DHT22;5677;48.488;13.436;2023-04-25T07:08:04;14.00;45.80
11239;DHT22;5677;48.488;13.436;2023-04-25T07:10:31;14.00;45.70
11239;DHT22;5677;48.488;13.436;2023-04-25T07:12:57;14.10;45.70
11239;DHT22;5677;48.488;13.436;2023-04-25T07:15:24;14.10;45.70
11239;DHT22;5677;48.488;13.436;2023-04-25T07:17:51;14.10;45.70
11239;DHT22;5677;48.488;13.436;2023-04-25T07:20:18;14.00;45.60
11239;DHT22;5677;48.488;13.436;2023-04-25T07:22:46;14.00;45.70
11239;DHT22;5677;48.488;13.436;2023-04-25T07:25:13;14.00;45.70
11239;DHT22;5677;48.488;13.436;2023-04-25T07:27:39;14.00;45.70
11239;DHT22;5677;48.488;13.436;2023-04-25T07:30:07;14.00;45.80
11239;DHT22;5677;48.488;13.436;2023-04-25T07:32:34;14.00;45.80
11239;DHT22;5677;48.488;13.436;2023-04-25T07:35:01;14.00;45.70
11239;DHT22;5677;48.488;13.436;2023-04-25T07:37:28;13.90;45.80
11239;DHT22;5677;48.488;13.436;2023-04-25T07:39:56;13.90;45.80
11239;DHT22;5677;48.488;13.436;2023-04-25T07:42:23;13.90;45.90
11239;DHT22;5677;48.488;13.436;2023-04-25T07:44:50;13.90;45.80
11239;DHT22;5677;48.488;13.436;2023-04-25T07:47:17;13.90;45.90
11239;DHT22;5677;48.488;13.436;2023-04-25T07:49:44;13.90;45.90
11239;DHT22;5677;48.488;13.436;2023-04-25T07:52:11;13.80;45.80
11239;DHT22;5677;48.488;13.436;2023-04-25T07:54:38;13.80;45.80
11239;DHT22;5677;48.488;13.436;2023-04-25T07:57:06;13.80;45.80
11239;DHT22;5677;48.488;13.436;2023-04-25T07:59:33;13.80;45.80
11239;DHT22;5677;48.488;13.436;2023-04-25T08:02:00;13.90;45.90
11239;DHT22;5677;48.488;13.436;2023-04-25T08:04:28;13.90;45.90
11239;DHT22;5677;48.488;13.436;2023-04-25T08:06:54;13.90;45.80
11239;DHT22;5677;48.488;13.436;2023-04-25T08:09:21;13.90;45.80
11239;DHT22;5677;48.488;13.436;2023-04-25T08:11:48;13.90;45.80
11239;DHT22;5677;48.488;13.436;2023-04-25T08:14:16;14.00;45.70
11239;DHT22;5677;48.488;13.436;2023-04-25T08:16:43;14.00;45.70
11239;DHT22;5677;48.488;13.436;2023-04-25T08:19:10;14.00;45.60
11239;DHT22;5677;48.488;13.436;2023-04-25T08:21:37;14.10;45.70
11239;DHT22;5677;48.488;13.436;2023-04-25T08:24:04;14.10;45.70
11239;DHT22;5677;48.488;13.436;2023-04-25T08:26:31;14.00;45.50
11239;DHT22;5677;48.488;13.436;2023-04-25T08:28:58;14.10;46.30
11239;DHT22;5677;48.488;13.436;2023-04-25T08:31:26;14.10;45.60
11239;DHT22;5677;48.488;13.436;2023-04-25T08:33:53;14.00;45.50
11239;DHT22;5677;48.488;13.436;2023-04-25T08:36:20;14.00;45.50
11239;DHT22;5677;48.488;13.436;2023-04-25T08:38:46;14.00;45.50
11239;DHT22;5677;48.488;13.436;2023-04-25T08:41:13;14.00;45.50
11239;DHT22;5677;48.488;13.436;2023-04-25T08:43:42;13.90;45.50
11239;DHT22;5677;48.488;13.436;2023-04-25T08:46:09;14.00;45.60
11239;DHT22;5677;48.488;13.436;2023-04-25T08:48:40;14.00;45.50
11239;DHT22;5677;48.488;13.436;2023-04-25T08:51:07;14.00;45.50
11239;DHT22;5677;48.488;13.436;2023-04-25T08:53:36;14.00;45.40
11239;DHT22;5677;48.488;13.436;2023-04-25T08:56:03;14.10;45.50
11239;DHT22;5677;48.488;13.436;2023-04-25T08:58:32;14.10;45.40
11239;DHT22;5677;48.488;13.436;2023-04-25T09:00:59;14.20;45.30
11239;DHT22;5677;48.488;13.436;2023-04-25T09:03:26;14.20;45.20
11239;DHT22;5677;48.488;13.436;2023-04-25T09:05:55;14.20;45.10
11239;DHT22;5677;48.488;13.436;2023-04-25T09:08:22;14.30;45.10
11239;DHT22;5677;48.488;13.436;2023-04-25T09:10:48;14.30;45.00
11239;DHT22;5677;48.488;13.436;2023-04-25T09:13:24;14.30;45.00
11239;DHT22;5677;48.488;13.436;2023-04-25T09:15:52;14.30;44.90
11239;DHT22;5677;48.488;13.436;2023-04-25T09:18:23;14.40;44.80
11239;DHT22;5677;48.488;13.436;2023-04-25T09:20:51;14.40;44.80
11239;DHT22;5677;48.488;13.436;2023-04-25T09:23:20;14.40;44.70
11239;DHT22;5677;48.488;13.436;2023-04-25T09:25:48;14.50;44.80
11239;DHT22;5677;48.488;13.436;2023-04-25T09:28:14;14.40;44.60
11239;DHT22;5677;48.488;13.436;2023-04-25T09:30:42;14.40;44.60
11239;DHT22;5677;48.488;13.436;2023-04-25T09:33:10;14.40;44.60
11239;DHT22;5677;48.488;13.436;2023-04-25T09:35:37;14.40;44.70
11239;DHT22;5677;48.488;13.436;2023-04-25T09:38:09;14.40;44.80
11239;DHT22;5677;48.488;13.436;2023-04-25T09:40:41;14.40;44.80
11239;DHT22;5677;48.488;13.436;2023-04-25T09:43:18;14.30;44.90
11239;DHT22;5677;48.488;13.436;2023-04-25T09:45:46;14.30;45.00
11239;DHT22;5677;48.488;13.436;2023-04-25T09:48:17;14.30;45.10
11239;DHT22;5677;48.488;13.436;2023-04-25T09:50:44;14.30;45.10
11239;DHT22;5677;48.488;13.436;2023-04-25T09:53:12;14.20;45.10
11239;DHT22;5677;48.488;13.436;2023-04-25T09:55:41;14.20;45.20
11239;DHT22;5677;48.488;13.436;2023-04-25T09:58:10;14.20;45.20
11239;DHT22;5677;48.488;13.436;2023-04-25T10:00:38;14.30;45.20
11239;DHT22;5677;48.488;13.436;2023-04-25T10:03:05;14.30;45.20
11239;DHT22;5677;48.488;13.436;2023-04-25T10:05:34;14.30;45.10
11239;DHT22;5677;48.488;13.436;2023-04-25T10:08:03;14.30;45.10
11239;DHT22;5677;48.488;13.436;2023-04-25T10:10:30;14.30;45.00
11239;DHT22;5677;48.488;13.436;2023-04-25T10:13:03;14.40;45.00
11239;DHT22;5677;48.488;13.436;2023-04-25T10:15:32;14.30;45.00
11239;DHT22;5677;48.488;13.436;2023-04-25T10:18:01;14.30;44.90
11239;DHT22;5677;48.488;13.436;2023-04-25T10:20:29;14.40;45.00
11239;DHT22;5677;48.488;13.436;2023-04-25T10:23:02;14.40;44.90
11239;DHT22;5677;48.488;13.436;2023-04-25T10:25:30;14.40;44.90
11239;DHT22;5677;48.488;13.436;2023-04-25T10:27:59;14.40;44.80
11239;DHT22;5677;48.488;13.436;2023-04-25T10:30:28;14.40;44.80
11239;DHT22;5677;48.488;13.436;2023-04-25T10:32:56;14.40;44.80
11239;DHT22;5677;48.488;13.436;2023-04-25T10:35:25;14.50;44.90
11239;DHT22;5677;48.488;13.436;2023-04-25T10:38:00;14.50;44.90
11239;DHT22;5677;48.488;13.436;2023-04-25T10:40:27;14.50;44.90
11239;DHT22;5677;48.488;13.436;2023-04-25T10:42:54;14.50;44.80
11239;DHT22;5677;48.488;13.436;2023-04-25T10:45:21;14.50;44.80
11239;DHT22;5677;48.488;13.436;2023-04-25T10:47:50;14.50;44.90
11239;DHT22;5677;48.488;13.436;2023-04-25T10:50:16;14.50;44.90
11239;DHT22;5677;48.488;13.436;2023-04-25T10:52:43;14.50;44.80
11239;DHT22;5677;48.488;13.436;2023-04-25T10:55:10;14.50;44.80
11239;DHT22;5677;48.488;13.436;2023-04-25T10:57:39;14.50;44.80
11239;DHT22;5677;48.488;13.436;2023-04-25T11:00:08;14.50;44.80
11239;DHT22;5677;48.488;13.436;2023-04-25T11:02:38;14.50;44.90
11239;DHT22;5677;48.488;13.436;2023-04-25T11:05:07;14.50;44.90
11239;DHT22;5677;48.488;13.436;2023-04-25T11:07:38;14.50;44.90
11239;DHT22;5677;48.488;13.436;2023-04-25T11:10:06;14.50;45.00
11239;DHT22;5677;48.488;13.436;2023-04-25T11:12:33;14.50;45.10
11239;DHT22;5677;48.488;13.436;2023-04-25T11:15:01;14.40;45.00
11239;DHT22;5677;48.488;13.436;2023-04-25T11:17:28;14.40;45.10
11239;DHT22;5677;48.488;13.436;2023-04-25T11:19:55;14.30;45.20
11239;DHT22;5677;48.488;13.436;2023-04-25T11:22:24;14.30;45.20
11239;DHT22;5677;48.488;13.436;2023-04-25T11:24:51;14.30;45.30
11239;DHT22;5677;48.488;13.436;2023-04-25T11:27:18;14.30;45.30
11239;DHT22;5677;48.488;13.436;2023-04-25T11:29:44;14.30;45.40
11239;DHT22;5677;48.488;13.436;2023-04-25T11:32:14;14.30;45.40
11239;DHT22;5677;48.488;13.436;2023-04-25T11:34:43;14.30;45.40
11239;DHT22;5677;48.488;13.436;2023-04-25T11:37:10;14.30;45.40
11239;DHT22;5677;48.488;13.436;2023-04-25T11:39:43;14.30;45.40
11239;DHT22;5677;48.488;13.436;2023-04-25T11:42:11;14.30;45.30
11239;DHT22;5677;48.488;13.436;2023-04-25T11:44:38;14.40;45.30
11239;DHT22;5677;48.488;13.436;2023-04-25T11:47:06;14.40;45.90
11239;DHT22;5677;48.488;13.436;2023-04-25T11:49:33;14.40;45.20
11239;DHT22;5677;48.488;13.436;2023-04-25T11:52:01;14.30;45.20
11239;DHT22;5677;48.488;13.436;2023-04-25T11:54:27;14.30;45.30
11239;DHT22;5677;48.488;13.436;2023-04-25T11:56:56;14.30;45.30
11239;DHT22;5677;48.488;13.436;2023-04-25T11:59:24;14.30;45.20
11239;DHT22;5677;48.488;13.436;2023-04-25T12:01:50;14.40;45.30
11239;DHT22;5677;48.488;13.436;2023-04-25T12:04:18;14.30;45.30
11239;DHT22;5677;48.488;13.436;2023-04-25T12:06:47;14.40;45.30
11239;DHT22;5677;48.488;13.436;2023-04-25T12:09:15;14.30;45.30
11239;DHT22;5677;48.488;13.436;2023-04-25T12:11:44;14.30;45.40
11239;DHT22;5677;48.488;13.436;2023-04-25T12:14:20;14.30;45.40
11239;DHT22;5677;48.488;13.436;2023-04-25T12:16:48;14.30;45.50
11239;DHT22;5677;48.488;13.436;2023-04-25T12:19:15;14.20;45.50
11239;DHT22;5677;48.488;13.436;2023-04-25T12:21:42;14.20;45.50
11239;DHT22;5677;48.488;13.436;2023-04-25T12:24:11;14.20;45.60
11239;DHT22;5677;48.488;13.436;2023-04-25T12:26:49;14.20;45.60
11239;DHT22;5677;48.488;13.436;2023-04-25T12:29:19;14.20;45.60
11239;DHT22;5677;48.488;13.436;2023-04-25T12:31:46;14.20;45.60
11239;DHT22;5677;48.488;13.436;2023-04-25T12:34:13;14.20;45.60
11239;DHT22;5677;48.488;13.436;2023-04-25T12:36:40;14.20;45.60
11239;DHT22;5677;48.488;13.436;2023-04-25T12:39:07;14.20;45.60
11239;DHT22;5677;48.488;13.436;2023-04-25T12:41:34;14.20;45.60
11239;DHT22;5677;48.488;13.436;2023-04-25T12:44:01;14.10;45.60
11239;DHT22;5677;48.488;13.436;2023-04-25T12:46:29;14.20;45.60
11239;DHT22;5677;48.488;13.436;2023-04-25T12:48:55;14.20;45.60
11239;DHT22;5677;48.488;13.436;2023-04-25T12:51:22;14.10;45.60
11239;DHT22;5677;48.488;13.436;2023-04-25T12:53:50;14.20;45.60
11239;DHT22;5677;48.488;13.436;2023-04-25T12:56:18;14.20;45.50
11239;DHT22;5677;48.488;13.436;2023-04-25T12:58:44;14.20;45.50
11239;DHT22;5677;48.488;13.436;2023-04-25T13:01:12;14.20;45.50
11239;DHT22;5677;48.488;13.436;2023-04-25T13:03:40;14.20;45.50
11239;DHT22;5677;48.488;13.436;2023-04-25T13:06:07;14.20;45.40
11239;DHT22;5677;48.488;13.436;2023-04-25T13:08:34;14.20;45.40
11239;DHT22;5677;48.488;13.436;2023-04-25T13:11:02;14.20;45.40
11239;DHT22;5677;48.488;13.436;2023-04-25T13:13:29;14.20;45.40
11239;DHT22;5677;48.488;13.436;2023-04-25T13:15:57;14.20;45.40
11239;DHT22;5677;48.488;13.436;2023-04-25T13:18:23;14.20;45.50
11239;DHT22;5677;48.488;13.436;2023-04-25T13:20:53;14.20;45.40
11239;DHT22;5677;48.488;13.436;2023-04-25T13:23:20;14.20;45.40
11239;DHT22;5677;48.488;13.436;2023-04-25T13:25:46;14.20;46.10
11239;DHT22;5677;48.488;13.436;2023-04-25T13:28:13;14.20;45.50
11239;DHT22;5677;48.488;13.436;2023-04-25T13:30:41;14.20;45.40
11239;DHT22;5677;48.488;13.436;2023-04-25T13:33:08;14.20;45.50
11239;DHT22;5677;48.488;13.436;2023-04-25T13:35:37;14.20;46.20
11239;DHT22;5677;48.488;13.436;2023-04-25T13:38:05;14.20;45.50
11239;DHT22;5677;48.488;13.436;2023-04-25T13:40:32;14.20;45.50
11239;DHT22;5677;48.488;13.436;2023-04-25T13:42:59;14.20;45.50
11239;DHT22;5677;48.488;13.436;2023-04-25T13:45:26;14.20;45.50
11239;DHT22;5677;48.488;13.436;2023-04-25T13:47:53;14.20;45.50
11239;DHT22;5677;48.488;13.436;2023-04-25T13:50:19;14.20;45.50
11239;DHT22;5677;48.488;13.436;2023-04-25T13:52:46;14.20;45.40
11239;DHT22;5677;48.488;13.436;2023-04-25T13:55:15;14.20;45.40
11239;DHT22;5677;48.488;13.436;2023-04-25T13:57:41;14.20;45.50
11239;DHT22;5677;48.488;13.436;2023-04-25T14:00:10;14.20;45.40
11239;DHT22;5677;48.488;13.436;2023-04-25T14:02:37;14.20;45.40
11239;DHT22;5677;48.488;13.436;2023-04-25T14:05:05;14.20;45.40
11239;DHT22;5677;48.488;13.436;2023-04-25T14:07:32;14.20;45.40
11239;DHT22;5677;48.488;13.436;2023-04-25T14:10:00;14.20;45.40
11239;DHT22;5677;48.488;13.436;2023-04-25T14:12:29;14.20;45.40
11239;DHT22;5677;48.488;13.436;2023-04-25T14:14:55;14.20;45.40
11239;DHT22;5677;48.488;13.436;2023-04-25T14:17:23;14.20;45.40
11239;DHT22;5677;48.488;13.436;2023-04-25T14:19:50;14.20;45.40
11239;DHT22;5677;48.488;13.436;2023-04-25T14:22:17;14.20;45.50
11239;DHT22;5677;48.488;13.436;2023-04-25T14:24:44;14.20;45.50
11239;DHT22;5677;48.488;13.436;2023-04-25T14:27:11;14.20;45.50
11239;DHT22;5677;48.488;13.436;2023-04-25T14:29:39;14.20;45.50
11239;DHT22;5677;48.488;13.436;2023-04-25T14:32:06;14.20;45.50
11239;DHT22;5677;48.488;13.436;2023-04-25T14:34:33;14.10;45.50
11239;DHT22;5677;48.488;13.436;2023-04-25T14:37:00;14.20;45.50
11239;DHT22;5677;48.488;13.436;2023-04-25T14:39:27;14.10;45.50
11239;DHT22;5677;48.488;13.436;2023-04-25T14:41:54;14.10;45.50
11239;DHT22;5677;48.488;13.436;2023-04-25T14:44:21;14.10;45.60
11239;DHT22;5677;48.488;13.436;2023-04-25T14:46:49;14.10;45.60
11239;DHT22;5677;48.488;13.436;2023-04-25T14:49:17;14.10;45.60
11239;DHT22;5677;48.488;13.436;2023-04-25T14:51:44;14.10;45.60
11239;DHT22;5677;48.488;13.436;2023-04-25T14:54:11;14.10;45.60
11239;DHT22;5677;48.488;13.436;2023-04-25T14:56:38;14.10;45.60
11239;DHT22;5677;48.488;13.436;2023-04-25T14:59:05;14.10;45.60
11239;DHT22;5677;48.488;13.436;2023-04-25T15:01:32;14.10;45.60
11239;DHT22;5677;48.488;13.436;2023-04-25T15:04:00;14.10;45.60
11239;DHT22;5677;48.488;13.436;2023-04-25T15:06:27;14.10;45.60
11239;DHT22;5677;48.488;13.436;2023-04-25T15:08:55;14.10;45.60
11239;DHT22;5677;48.488;13.436;2023-04-25T15:11:22;14.10;45.70
11239;DHT22;5677;48.488;13.436;2023-04-25T15:13:49;14.10;45.70
11239;DHT22;5677;48.488;13.436;2023-04-25T15:16:16;14.10;45.60
11239;DHT22;5677;48.488;13.436;2023-04-25T15:18:43;14.10;45.60
11239;DHT22;5677;48.488;13.436;2023-04-25T15:21:11;14.10;45.70
11239;DHT22;5677;48.488;13.436;2023-04-25T15:23:38;14.00;45.60
11239;DHT22;5677;48.488;13.436;2023-04-25T15:26:04;14.00;45.60
11239;DHT22;5677;48.488;13.436;2023-04-25T15:28:31;14.00;45.60
11239;DHT22;5677;48.488;13.436;2023-04-25T15:30:59;14.00;45.50